sensor_id;sensor_type;location;lat;lon;timestamp;P1;durP1;ratioP1;P2;durP2;ratioP2
57339;SDS011;43174;50.930;18.170;2022-09-13T00:01:32;6.20;;;5.30;;
57339;SDS011;43174;50.930;18.170;2022-09-13T00:03:58;4.20;;;3.80;;
57339;SDS011;43174;50.930;18.170;2022-09-13T00:06:24;6.10;;;5.70;;
57339;SDS011;43174;50.930;18.170;2022-09-13T00:08:49;6.40;;;5.80;;
57339;SDS011;43174;50.930;18.170;2022-09-13T00:11:19;6.90;;;6.30;;
57339;SDS011;43174;50.930;18.170;2022-09-13T00:13:47;6.10;;;5.50;;
57339;SDS011;43174;50.930;18.170;2022-09-13T00:16:14;5.90;;;5.40;;
57339;SDS011;43174;50.930;18.170;2022-09-13T00:18:42;6.80;;;6.20;;
57339;SDS011;43174;50.930;18.170;2022-09-13T00:21:09;5.50;;;5.20;;
57339;SDS011;43174;50.930;18.170;2022-09-13T00:23:36;9.30;;;7.90;;
57339;SDS011;43174;50.930;18.170;2022-09-13T00:26:04;6.40;;;6.00;;
57339;SDS011;43174;50.930;18.170;2022-09-13T00:28:34;6.20;;;5.80;;
57339;SDS011;43174;50.930;18.170;2022-09-13T00:31:01;6.70;;;6.10;;
57339;SDS011;43174;50.930;18.170;2022-09-13T00:33:28;7.10;;;6.60;;
57339;SDS011;43174;50.930;18.170;2022-09-13T00:35:53;6.30;;;5.90;;
57339;SDS011;43174;50.930;18.170;2022-09-13T00:38:19;7.00;;;6.40;;
57339;SDS011;43174;50.930;18.170;2022-09-13T00:40:44;7.50;;;7.00;;
57339;SDS011;43174;50.930;18.170;2022-09-13T00:43:15;7.70;;;7.10;;
57339;SDS011;43174;50.930;18.170;2022-09-13T00:45:45;7.90;;;6.50;;
57339;SDS011;43174;50.930;18.170;2022-09-13T00:48:15;7.20;;;6.50;;
57339;SDS011;43174;50.930;18.170;2022-09-13T00:50:45;6.90;;;6.20;;
57339;SDS011;43174;50.930;18.170;2022-09-13T00:53:19;7.70;;;6.10;;
57339;SDS011;43174;50.930;18.170;2022-09-13T00:55:54;6.80;;;6.30;;
57339;SDS011;43174;50.930;18.170;2022-09-13T01:00:52;6.50;;;5.90;;
57339;SDS011;43174;50.930;18.170;2022-09-13T01:03:21;7.10;;;6.20;;
57339;SDS011;43174;50.930;18.170;2022-09-13T01:05:51;6.60;;;6.00;;
57339;SDS011;43174;50.930;18.170;2022-09-13T01:08:20;7.10;;;6.50;;
57339;SDS011;43174;50.930;18.170;2022-09-13T01:10:49;6.40;;;6.00;;
57339;SDS011;43174;50.930;18.170;2022-09-13T01:13:22;5.50;;;5.10;;
57339;SDS011;43174;50.930;18.170;2022-09-13T01:15:49;6.40;;;5.30;;
57339;SDS011;43174;50.930;18.170;2022-09-13T01:18:16;6.10;;;5.60;;
57339;SDS011;43174;50.930;18.170;2022-09-13T01:29:02;6.00;;;5.00;;
57339;SDS011;43174;50.930;18.170;2022-09-13T01:31:50;5.60;;;5.20;;
57339;SDS011;43174;50.930;18.170;2022-09-13T01:34:26;5.90;;;5.50;;
57339;SDS011;43174;50.930;18.170;2022-09-13T01:42:27;8.30;;;5.20;;
57339;SDS011;43174;50.930;18.170;2022-09-13T01:53:01;4.50;;;4.10;;
57339;SDS011;43174;50.930;18.170;2022-09-13T02:04:06;6.50;;;6.00;;
57339;SDS011;43174;50.930;18.170;2022-09-13T02:06:55;6.10;;;5.70;;
57339;SDS011;43174;50.930;18.170;2022-09-13T02:09:29;7.00;;;6.40;;
57339;SDS011;43174;50.930;18.170;2022-09-13T02:12:06;6.40;;;5.80;;
57339;SDS011;43174;50.930;18.170;2022-09-13T02:14:38;6.90;;;6.20;;
57339;SDS011;43174;50.930;18.170;2022-09-13T02:17:12;6.70;;;6.20;;
57339;SDS011;43174;50.930;18.170;2022-09-13T02:22:20;7.50;;;6.90;;
57339;SDS011;43174;50.930;18.170;2022-09-13T02:24:52;8.50;;;7.20;;
57339;SDS011;43174;50.930;18.170;2022-09-13T02:27:23;8.10;;;7.40;;
57339;SDS011;43174;50.930;18.170;2022-09-13T02:29:51;7.50;;;7.00;;
57339;SDS011;43174;50.930;18.170;2022-09-13T02:35:07;9.60;;;8.70;;
57339;SDS011;43174;50.930;18.170;2022-09-13T02:37:39;9.00;;;8.30;;
57339;SDS011;43174;50.930;18.170;2022-09-13T02:40:08;7.90;;;7.40;;
57339;SDS011;43174;50.930;18.170;2022-09-13T02:42:41;9.00;;;8.40;;
57339;SDS011;43174;50.930;18.170;2022-09-13T02:45:10;9.00;;;8.00;;
57339;SDS011;43174;50.930;18.170;2022-09-13T02:47:56;8.40;;;7.80;;
57339;SDS011;43174;50.930;18.170;2022-09-13T02:58:44;16.10;;;10.40;;
57339;SDS011;43174;50.930;18.170;2022-09-13T03:01:10;20.50;;;8.80;;
57339;SDS011;43174;50.930;18.170;2022-09-13T03:03:36;31.70;;;9.70;;
57339;SDS011;43174;50.930;18.170;2022-09-13T03:06:02;7.80;;;7.20;;
57339;SDS011;43174;50.930;18.170;2022-09-13T03:08:28;45.50;;;10.20;;
57339;SDS011;43174;50.930;18.170;2022-09-13T03:11:11;29.60;;;9.60;;
57339;SDS011;43174;50.930;18.170;2022-09-13T03:16:40;14.10;;;8.20;;
57339;SDS011;43174;50.930;18.170;2022-09-13T03:19:16;15.90;;;8.10;;
57339;SDS011;43174;50.930;18.170;2022-09-13T03:27:38;8.60;;;8.20;;
57339;SDS011;43174;50.930;18.170;2022-09-13T03:30:16;9.50;;;8.00;;
57339;SDS011;43174;50.930;18.170;2022-09-13T03:32:48;8.80;;;8.00;;
57339;SDS011;43174;50.930;18.170;2022-09-13T03:40:37;8.40;;;8.00;;
57339;SDS011;43174;50.930;18.170;2022-09-13T03:43:07;8.80;;;8.20;;
57339;SDS011;43174;50.930;18.170;2022-09-13T03:48:06;8.70;;;8.30;;
57339;SDS011;43174;50.930;18.170;2022-09-13T03:50:34;8.70;;;8.20;;
57339;SDS011;43174;50.930;18.170;2022-09-13T03:53:03;8.80;;;8.30;;
57339;SDS011;43174;50.930;18.170;2022-09-13T03:55:32;8.00;;;7.40;;
57339;SDS011;43174;50.930;18.170;2022-09-13T03:57:59;8.50;;;7.80;;
57339;SDS011;43174;50.930;18.170;2022-09-13T04:00:25;8.10;;;7.70;;
57339;SDS011;43174;50.930;18.170;2022-09-13T04:02:52;8.40;;;7.80;;
57339;SDS011;43174;50.930;18.170;2022-09-13T04:05:18;8.10;;;7.70;;
57339;SDS011;43174;50.930;18.170;2022-09-13T04:07:43;8.20;;;7.70;;
57339;SDS011;43174;50.930;18.170;2022-09-13T04:10:09;8.50;;;8.10;;
57339;SDS011;43174;50.930;18.170;2022-09-13T04:12:35;8.10;;;7.70;;
57339;SDS011;43174;50.930;18.170;2022-09-13T04:15:00;8.30;;;7.60;;
57339;SDS011;43174;50.930;18.170;2022-09-13T04:17:26;7.60;;;7.00;;
57339;SDS011;43174;50.930;18.170;2022-09-13T04:19:54;8.40;;;7.90;;
57339;SDS011;43174;50.930;18.170;2022-09-13T04:22:19;8.20;;;7.70;;
57339;SDS011;43174;50.930;18.170;2022-09-13T04:24:45;8.60;;;8.00;;
57339;SDS011;43174;50.930;18.170;2022-09-13T04:27:11;8.60;;;8.20;;
57339;SDS011;43174;50.930;18.170;2022-09-13T04:29:37;8.20;;;7.80;;
57339;SDS011;43174;50.930;18.170;2022-09-13T04:32:02;7.80;;;7.30;;
57339;SDS011;43174;50.930;18.170;2022-09-13T04:34:28;7.80;;;7.10;;
57339;SDS011;43174;50.930;18.170;2022-09-13T04:36:54;8.00;;;7.60;;
57339;SDS011;43174;50.930;18.170;2022-09-13T04:39:20;7.30;;;6.90;;
57339;SDS011;43174;50.930;18.170;2022-09-13T04:41:46;8.10;;;7.40;;
57339;SDS011;43174;50.930;18.170;2022-09-13T04:44:13;8.70;;;7.90;;
57339;SDS011;43174;50.930;18.170;2022-09-13T04:46:40;7.50;;;7.10;;
57339;SDS011;43174;50.930;18.170;2022-09-13T04:49:08;7.80;;;7.40;;
57339;SDS011;43174;50.930;18.170;2022-09-13T04:51:35;8.00;;;7.50;;
57339;SDS011;43174;50.930;18.170;2022-09-13T04:54:00;8.80;;;8.10;;
57339;SDS011;43174;50.930;18.170;2022-09-13T04:56:26;8.10;;;7.60;;
57339;SDS011;43174;50.930;18.170;2022-09-13T04:58:53;7.70;;;7.10;;
57339;SDS011;43174;50.930;18.170;2022-09-13T05:01:20;7.00;;;6.50;;
57339;SDS011;43174;50.930;18.170;2022-09-13T05:03:46;6.90;;;6.50;;
57339;SDS011;43174;50.930;18.170;2022-09-13T05:06:13;7.30;;;6.90;;
57339;SDS011;43174;50.930;18.170;2022-09-13T05:08:44;8.00;;;7.50;;
57339;SDS011;43174;50.930;18.170;2022-09-13T05:11:13;8.40;;;7.60;;
57339;SDS011;43174;50.930;18.170;2022-09-13T05:13:39;8.10;;;7.70;;
57339;SDS011;43174;50.930;18.170;2022-09-13T05:16:06;8.30;;;7.80;;
57339;SDS011;43174;50.930;18.170;2022-09-13T05:18:33;8.00;;;7.50;;
57339;SDS011;43174;50.930;18.170;2022-09-13T05:21:00;9.10;;;8.10;;
57339;SDS011;43174;50.930;18.170;2022-09-13T05:23:27;7.70;;;7.30;;
57339;SDS011;43174;50.930;18.170;2022-09-13T05:25:55;7.40;;;7.00;;
57339;SDS011;43174;50.930;18.170;2022-09-13T05:28:29;8.00;;;7.60;;
57339;SDS011;43174;50.930;18.170;2022-09-13T05:33:25;7.70;;;6.80;;
57339;SDS011;43174;50.930;18.170;2022-09-13T05:35:52;7.90;;;7.40;;
57339;SDS011;43174;50.930;18.170;2022-09-13T05:38:18;7.60;;;7.10;;
57339;SDS011;43174;50.930;18.170;2022-09-13T05:40:45;6.80;;;6.40;;
57339;SDS011;43174;50.930;18.170;2022-09-13T05:43:11;7.10;;;6.50;;
57339;SDS011;43174;50.930;18.170;2022-09-13T05:45:37;9.40;;;6.90;;
57339;SDS011;43174;50.930;18.170;2022-09-13T05:48:03;7.90;;;6.80;;
57339;SDS011;43174;50.930;18.170;2022-09-13T05:50:29;7.90;;;7.40;;
57339;SDS011;43174;50.930;18.170;2022-09-13T05:52:55;7.50;;;6.80;;
57339;SDS011;43174;50.930;18.170;2022-09-13T05:55:20;7.70;;;7.10;;
57339;SDS011;43174;50.930;18.170;2022-09-13T05:57:47;7.20;;;6.60;;
57339;SDS011;43174;50.930;18.170;2022-09-13T06:00:14;7.30;;;6.80;;
57339;SDS011;43174;50.930;18.170;2022-09-13T06:02:40;8.50;;;7.10;;
57339;SDS011;43174;50.930;18.170;2022-09-13T06:05:10;7.60;;;7.00;;
57339;SDS011;43174;50.930;18.170;2022-09-13T06:07:38;7.20;;;6.80;;
57339;SDS011;43174;50.930;18.170;2022-09-13T06:10:06;7.80;;;7.30;;
57339;SDS011;43174;50.930;18.170;2022-09-13T06:12:32;7.80;;;7.30;;
57339;SDS011;43174;50.930;18.170;2022-09-13T06:14:58;8.30;;;7.80;;
57339;SDS011;43174;50.930;18.170;2022-09-13T06:17:24;7.20;;;6.80;;
57339;SDS011;43174;50.930;18.170;2022-09-13T06:19:50;7.50;;;7.10;;
57339;SDS011;43174;50.930;18.170;2022-09-13T06:22:16;7.60;;;7.00;;
57339;SDS011;43174;50.930;18.170;2022-09-13T06:24:41;8.60;;;8.00;;
57339;SDS011;43174;50.930;18.170;2022-09-13T06:27:07;8.80;;;8.10;;
57339;SDS011;43174;50.930;18.170;2022-09-13T06:29:34;8.10;;;7.50;;
57339;SDS011;43174;50.930;18.170;2022-09-13T06:32:02;8.90;;;8.10;;
57339;SDS011;43174;50.930;18.170;2022-09-13T06:34:28;8.50;;;8.00;;
57339;SDS011;43174;50.930;18.170;2022-09-13T06:36:53;8.40;;;7.80;;
57339;SDS011;43174;50.930;18.170;2022-09-13T06:39:19;8.60;;;7.90;;
57339;SDS011;43174;50.930;18.170;2022-09-13T06:41:45;8.50;;;8.00;;
57339;SDS011;43174;50.930;18.170;2022-09-13T06:44:10;7.90;;;7.40;;
57339;SDS011;43174;50.930;18.170;2022-09-13T06:46:36;8.00;;;7.50;;
57339;SDS011;43174;50.930;18.170;2022-09-13T06:49:03;7.30;;;6.90;;
57339;SDS011;43174;50.930;18.170;2022-09-13T06:51:30;7.80;;;7.30;;
57339;SDS011;43174;50.930;18.170;2022-09-13T06:53:57;7.00;;;6.60;;
57339;SDS011;43174;50.930;18.170;2022-09-13T06:58:54;7.10;;;6.70;;
57339;SDS011;43174;50.930;18.170;2022-09-13T07:01:22;6.40;;;6.10;;
57339;SDS011;43174;50.930;18.170;2022-09-13T07:03:53;6.90;;;6.50;;
57339;SDS011;43174;50.930;18.170;2022-09-13T07:06:23;7.00;;;6.40;;
57339;SDS011;43174;50.930;18.170;2022-09-13T07:08:52;6.60;;;6.00;;
57339;SDS011;43174;50.930;18.170;2022-09-13T07:11:19;6.00;;;5.60;;
57339;SDS011;43174;50.930;18.170;2022-09-13T07:13:47;5.90;;;5.30;;
57339;SDS011;43174;50.930;18.170;2022-09-13T07:16:13;6.00;;;5.60;;
57339;SDS011;43174;50.930;18.170;2022-09-13T07:18:39;5.60;;;5.30;;
57339;SDS011;43174;50.930;18.170;2022-09-13T07:21:05;5.70;;;5.10;;
57339;SDS011;43174;50.930;18.170;2022-09-13T07:23:33;6.40;;;5.90;;
57339;SDS011;43174;50.930;18.170;2022-09-13T07:26:00;5.50;;;5.00;;
57339;SDS011;43174;50.930;18.170;2022-09-13T07:28:27;5.20;;;4.90;;
57339;SDS011;43174;50.930;18.170;2022-09-13T07:30:55;5.20;;;4.70;;
57339;SDS011;43174;50.930;18.170;2022-09-13T07:33:23;4.60;;;4.30;;
57339;SDS011;43174;50.930;18.170;2022-09-13T07:35:54;4.60;;;4.30;;
57339;SDS011;43174;50.930;18.170;2022-09-13T07:38:20;5.00;;;4.60;;
57339;SDS011;43174;50.930;18.170;2022-09-13T07:40:55;4.50;;;4.20;;
57339;SDS011;43174;50.930;18.170;2022-09-13T07:43:22;4.60;;;4.20;;
57339;SDS011;43174;50.930;18.170;2022-09-13T07:45:56;4.60;;;4.10;;
57339;SDS011;43174;50.930;18.170;2022-09-13T07:48:33;4.80;;;4.50;;
57339;SDS011;43174;50.930;18.170;2022-09-13T07:53:39;4.70;;;4.40;;
57339;SDS011;43174;50.930;18.170;2022-09-13T07:56:25;4.90;;;4.50;;
57339;SDS011;43174;50.930;18.170;2022-09-13T07:58:54;4.90;;;4.50;;
57339;SDS011;43174;50.930;18.170;2022-09-13T08:01:21;4.20;;;3.90;;
57339;SDS011;43174;50.930;18.170;2022-09-13T08:04:02;4.60;;;4.10;;
57339;SDS011;43174;50.930;18.170;2022-09-13T08:06:29;4.90;;;4.60;;
57339;SDS011;43174;50.930;18.170;2022-09-13T08:08:55;4.90;;;4.30;;
57339;SDS011;43174;50.930;18.170;2022-09-13T08:11:23;4.30;;;4.00;;
57339;SDS011;43174;50.930;18.170;2022-09-13T08:13:56;6.90;;;4.50;;
57339;SDS011;43174;50.930;18.170;2022-09-13T08:16:23;4.90;;;4.40;;
57339;SDS011;43174;50.930;18.170;2022-09-13T08:18:50;4.10;;;3.60;;
57339;SDS011;43174;50.930;18.170;2022-09-13T08:21:17;3.80;;;3.60;;
57339;SDS011;43174;50.930;18.170;2022-09-13T08:23:45;4.30;;;4.00;;
57339;SDS011;43174;50.930;18.170;2022-09-13T08:26:11;4.00;;;3.70;;
57339;SDS011;43174;50.930;18.170;2022-09-13T08:28:38;3.90;;;3.60;;
57339;SDS011;43174;50.930;18.170;2022-09-13T08:33:31;3.60;;;3.40;;
57339;SDS011;43174;50.930;18.170;2022-09-13T08:35:57;3.60;;;3.30;;
57339;SDS011;43174;50.930;18.170;2022-09-13T08:38:23;3.10;;;2.90;;
57339;SDS011;43174;50.930;18.170;2022-09-13T08:40:55;3.50;;;3.20;;
57339;SDS011;43174;50.930;18.170;2022-09-13T08:43:44;7.80;;;3.40;;
57339;SDS011;43174;50.930;18.170;2022-09-13T08:48:49;3.50;;;3.30;;
57339;SDS011;43174;50.930;18.170;2022-09-13T08:54:05;4.00;;;3.20;;
57339;SDS011;43174;50.930;18.170;2022-09-13T09:04:19;3.50;;;3.20;;
57339;SDS011;43174;50.930;18.170;2022-09-13T09:07:14;3.70;;;3.40;;
57339;SDS011;43174;50.930;18.170;2022-09-13T09:09:58;3.90;;;3.10;;
57339;SDS011;43174;50.930;18.170;2022-09-13T09:12:35;3.50;;;3.10;;
57339;SDS011;43174;50.930;18.170;2022-09-13T09:15:26;3.70;;;3.10;;
57339;SDS011;43174;50.930;18.170;2022-09-13T09:17:58;3.30;;;3.00;;
57339;SDS011;43174;50.930;18.170;2022-09-13T09:23:11;3.50;;;3.20;;
57339;SDS011;43174;50.930;18.170;2022-09-13T09:25:40;3.00;;;2.80;;
57339;SDS011;43174;50.930;18.170;2022-09-13T09:28:13;3.60;;;2.90;;
57339;SDS011;43174;50.930;18.170;2022-09-13T09:30:59;3.90;;;2.80;;
57339;SDS011;43174;50.930;18.170;2022-09-13T09:39:30;2.40;;;2.20;;
57339;SDS011;43174;50.930;18.170;2022-09-13T09:41:57;4.50;;;2.50;;
57339;SDS011;43174;50.930;18.170;2022-09-13T09:44:25;2.40;;;2.20;;
57339;SDS011;43174;50.930;18.170;2022-09-13T09:46:55;2.70;;;2.50;;
57339;SDS011;43174;50.930;18.170;2022-09-13T09:49:31;2.90;;;2.10;;
57339;SDS011;43174;50.930;18.170;2022-09-13T09:52:21;3.10;;;2.60;;
57339;SDS011;43174;50.930;18.170;2022-09-13T09:54:50;2.30;;;2.00;;
57339;SDS011;43174;50.930;18.170;2022-09-13T09:57:16;1.90;;;1.80;;
57339;SDS011;43174;50.930;18.170;2022-09-13T09:59:44;2.10;;;1.90;;
57339;SDS011;43174;50.930;18.170;2022-09-13T10:02:15;1.90;;;1.80;;
57339;SDS011;43174;50.930;18.170;2022-09-13T10:04:52;2.30;;;2.10;;
57339;SDS011;43174;50.930;18.170;2022-09-13T10:07:29;1.90;;;1.70;;
57339;SDS011;43174;50.930;18.170;2022-09-13T10:09:58;4.10;;;2.30;;
57339;SDS011;43174;50.930;18.170;2022-09-13T10:12:29;2.30;;;2.10;;
57339;SDS011;43174;50.930;18.170;2022-09-13T10:15:17;2.10;;;2.00;;
57339;SDS011;43174;50.930;18.170;2022-09-13T10:20:39;2.10;;;2.00;;
57339;SDS011;43174;50.930;18.170;2022-09-13T10:25:36;2.30;;;2.00;;
57339;SDS011;43174;50.930;18.170;2022-09-13T10:30:34;2.50;;;2.30;;
57339;SDS011;43174;50.930;18.170;2022-09-13T10:33:02;2.60;;;2.40;;
57339;SDS011;43174;50.930;18.170;2022-09-13T10:35:29;2.40;;;2.30;;
57339;SDS011;43174;50.930;18.170;2022-09-13T10:37:55;2.20;;;2.10;;
57339;SDS011;43174;50.930;18.170;2022-09-13T10:40:30;2.30;;;2.20;;
57339;SDS011;43174;50.930;18.170;2022-09-13T10:43:00;3.20;;;3.00;;
57339;SDS011;43174;50.930;18.170;2022-09-13T10:45:28;2.40;;;2.30;;
57339;SDS011;43174;50.930;18.170;2022-09-13T10:47:58;2.80;;;2.60;;
57339;SDS011;43174;50.930;18.170;2022-09-13T10:50:39;3.90;;;3.30;;
57339;SDS011;43174;50.930;18.170;2022-09-13T10:55:57;3.60;;;3.30;;
57339;SDS011;43174;50.930;18.170;2022-09-13T10:58:23;3.20;;;3.00;;
57339;SDS011;43174;50.930;18.170;2022-09-13T11:11:55;3.20;;;3.00;;
57339;SDS011;43174;50.930;18.170;2022-09-13T11:30:30;3.40;;;3.20;;
57339;SDS011;43174;50.930;18.170;2022-09-13T11:33:16;3.80;;;3.50;;
57339;SDS011;43174;50.930;18.170;2022-09-13T11:40:54;3.70;;;2.90;;
57339;SDS011;43174;50.930;18.170;2022-09-13T11:46:23;2.70;;;2.50;;
57339;SDS011;43174;50.930;18.170;2022-09-13T11:57:09;2.50;;;2.30;;
57339;SDS011;43174;50.930;18.170;2022-09-13T11:59:41;2.90;;;2.40;;
57339;SDS011;43174;50.930;18.170;2022-09-13T12:02:17;2.50;;;2.20;;
57339;SDS011;43174;50.930;18.170;2022-09-13T12:04:51;3.30;;;2.30;;
57339;SDS011;43174;50.930;18.170;2022-09-13T12:07:30;2.30;;;2.20;;
57339;SDS011;43174;50.930;18.170;2022-09-13T12:12:45;2.10;;;2.00;;
57339;SDS011;43174;50.930;18.170;2022-09-13T12:15:15;2.60;;;2.40;;
57339;SDS011;43174;50.930;18.170;2022-09-13T12:17:50;2.70;;;2.30;;
57339;SDS011;43174;50.930;18.170;2022-09-13T12:20:33;5.70;;;2.00;;
57339;SDS011;43174;50.930;18.170;2022-09-13T12:23:02;2.20;;;2.10;;
57339;SDS011;43174;50.930;18.170;2022-09-13T12:25:38;2.40;;;2.10;;
57339;SDS011;43174;50.930;18.170;2022-09-13T12:28:27;2.00;;;1.90;;
57339;SDS011;43174;50.930;18.170;2022-09-13T12:31:01;2.30;;;2.10;;
57339;SDS011;43174;50.930;18.170;2022-09-13T12:33:30;6.60;;;2.40;;
57339;SDS011;43174;50.930;18.170;2022-09-13T12:41:34;2.10;;;2.00;;
57339;SDS011;43174;50.930;18.170;2022-09-13T13:02:44;2.70;;;1.80;;
57339;SDS011;43174;50.930;18.170;2022-09-13T13:05:23;1.90;;;1.70;;
57339;SDS011;43174;50.930;18.170;2022-09-13T13:07:53;4.80;;;1.70;;
57339;SDS011;43174;50.930;18.170;2022-09-13T13:10:26;2.00;;;1.90;;
57339;SDS011;43174;50.930;18.170;2022-09-13T13:12:55;2.00;;;1.90;;
57339;SDS011;43174;50.930;18.170;2022-09-13T13:26:12;2.50;;;2.30;;
57339;SDS011;43174;50.930;18.170;2022-09-13T13:34:37;4.30;;;2.10;;
57339;SDS011;43174;50.930;18.170;2022-09-13T13:39:36;1.90;;;1.80;;
57339;SDS011;43174;50.930;18.170;2022-09-13T14:05:21;3.60;;;2.60;;
57339;SDS011;43174;50.930;18.170;2022-09-13T14:13:18;2.80;;;2.50;;
57339;SDS011;43174;50.930;18.170;2022-09-13T14:16:08;3.00;;;2.30;;
57339;SDS011;43174;50.930;18.170;2022-09-13T14:21:32;3.00;;;2.70;;
57339;SDS011;43174;50.930;18.170;2022-09-13T14:26:48;3.00;;;2.50;;
57339;SDS011;43174;50.930;18.170;2022-09-13T14:29:17;2.50;;;2.30;;
57339;SDS011;43174;50.930;18.170;2022-09-13T14:31:45;3.10;;;2.40;;
57339;SDS011;43174;50.930;18.170;2022-09-13T14:36:58;2.70;;;2.50;;
57339;SDS011;43174;50.930;18.170;2022-09-13T14:39:26;2.70;;;2.50;;
57339;SDS011;43174;50.930;18.170;2022-09-13T14:42:02;2.70;;;2.50;;
57339;SDS011;43174;50.930;18.170;2022-09-13T14:44:42;2.70;;;2.30;;
57339;SDS011;43174;50.930;18.170;2022-09-13T14:47:15;3.40;;;2.60;;
57339;SDS011;43174;50.930;18.170;2022-09-13T14:49:43;2.70;;;2.50;;
57339;SDS011;43174;50.930;18.170;2022-09-13T14:52:19;2.60;;;2.50;;
57339;SDS011;43174;50.930;18.170;2022-09-13T14:55:06;3.00;;;2.70;;
57339;SDS011;43174;50.930;18.170;2022-09-13T14:57:36;2.80;;;2.60;;
57339;SDS011;43174;50.930;18.170;2022-09-13T15:00:05;5.30;;;2.70;;
57339;SDS011;43174;50.930;18.170;2022-09-13T15:02:57;2.90;;;2.70;;
57339;SDS011;43174;50.930;18.170;2022-09-13T15:05:25;3.00;;;2.70;;
57339;SDS011;43174;50.930;18.170;2022-09-13T15:07:55;2.90;;;2.80;;
57339;SDS011;43174;50.930;18.170;2022-09-13T15:10:25;2.70;;;2.60;;
57339;SDS011;43174;50.930;18.170;2022-09-13T15:18:02;3.00;;;2.80;;
57339;SDS011;43174;50.930;18.170;2022-09-13T15:23:25;2.80;;;2.60;;
57339;SDS011;43174;50.930;18.170;2022-09-13T15:26:07;3.50;;;3.00;;
57339;SDS011;43174;50.930;18.170;2022-09-13T15:31:05;2.90;;;2.70;;
57339;SDS011;43174;50.930;18.170;2022-09-13T15:33:32;3.30;;;2.80;;
57339;SDS011;43174;50.930;18.170;2022-09-13T15:41:52;2.80;;;2.60;;
57339;SDS011;43174;50.930;18.170;2022-09-13T15:44:23;3.50;;;3.10;;
57339;SDS011;43174;50.930;18.170;2022-09-13T15:46:50;3.40;;;2.80;;
57339;SDS011;43174;50.930;18.170;2022-09-13T15:49:36;3.40;;;3.10;;
57339;SDS011;43174;50.930;18.170;2022-09-13T15:52:04;2.90;;;2.70;;
57339;SDS011;43174;50.930;18.170;2022-09-13T15:54:34;3.20;;;2.80;;
57339;SDS011;43174;50.930;18.170;2022-09-13T15:57:04;2.80;;;2.60;;
57339;SDS011;43174;50.930;18.170;2022-09-13T15:59:31;4.50;;;3.50;;
57339;SDS011;43174;50.930;18.170;2022-09-13T16:01:57;2.90;;;2.80;;
57339;SDS011;43174;50.930;18.170;2022-09-13T16:04:41;3.70;;;3.40;;
57339;SDS011;43174;50.930;18.170;2022-09-13T16:07:07;4.90;;;3.10;;
57339;SDS011;43174;50.930;18.170;2022-09-13T16:09:32;3.30;;;3.10;;
57339;SDS011;43174;50.930;18.170;2022-09-13T16:11:58;3.10;;;3.00;;
57339;SDS011;43174;50.930;18.170;2022-09-13T16:14:24;4.70;;;3.10;;
57339;SDS011;43174;50.930;18.170;2022-09-13T16:16:50;2.60;;;2.50;;
57339;SDS011;43174;50.930;18.170;2022-09-13T16:19:17;3.80;;;3.00;;
57339;SDS011;43174;50.930;18.170;2022-09-13T16:21:44;3.80;;;3.00;;
57339;SDS011;43174;50.930;18.170;2022-09-13T16:24:12;3.70;;;3.50;;
57339;SDS011;43174;50.930;18.170;2022-09-13T16:26:38;3.20;;;3.10;;
57339;SDS011;43174;50.930;18.170;2022-09-13T16:29:04;3.20;;;3.00;;
57339;SDS011;43174;50.930;18.170;2022-09-13T16:31:30;3.20;;;3.00;;
57339;SDS011;43174;50.930;18.170;2022-09-13T16:33:55;3.40;;;3.20;;
57339;SDS011;43174;50.930;18.170;2022-09-13T16:36:21;3.60;;;3.20;;
57339;SDS011;43174;50.930;18.170;2022-09-13T16:38:47;3.50;;;3.20;;
57339;SDS011;43174;50.930;18.170;2022-09-13T16:41:13;4.10;;;3.30;;
57339;SDS011;43174;50.930;18.170;2022-09-13T16:43:38;3.30;;;3.10;;
57339;SDS011;43174;50.930;18.170;2022-09-13T16:46:07;3.70;;;3.50;;
57339;SDS011;43174;50.930;18.170;2022-09-13T16:48:35;4.60;;;3.80;;
57339;SDS011;43174;50.930;18.170;2022-09-13T16:51:02;4.00;;;3.20;;
57339;SDS011;43174;50.930;18.170;2022-09-13T16:53:37;3.70;;;3.20;;
57339;SDS011;43174;50.930;18.170;2022-09-13T16:56:22;4.30;;;3.20;;
57339;SDS011;43174;50.930;18.170;2022-09-13T16:58:49;3.60;;;3.30;;
57339;SDS011;43174;50.930;18.170;2022-09-13T17:01:16;3.30;;;3.00;;
57339;SDS011;43174;50.930;18.170;2022-09-13T17:03:44;3.70;;;3.40;;
57339;SDS011;43174;50.930;18.170;2022-09-13T17:06:11;4.90;;;3.00;;
57339;SDS011;43174;50.930;18.170;2022-09-13T17:08:40;3.40;;;3.20;;
57339;SDS011;43174;50.930;18.170;2022-09-13T17:11:07;3.60;;;3.30;;
57339;SDS011;43174;50.930;18.170;2022-09-13T17:13:36;3.20;;;3.00;;
57339;SDS011;43174;50.930;18.170;2022-09-13T17:16:03;3.30;;;3.00;;
57339;SDS011;43174;50.930;18.170;2022-09-13T17:18:31;3.30;;;3.00;;
57339;SDS011;43174;50.930;18.170;2022-09-13T17:20:57;4.00;;;3.70;;
57339;SDS011;43174;50.930;18.170;2022-09-13T17:23:24;4.00;;;3.80;;
57339;SDS011;43174;50.930;18.170;2022-09-13T17:25:51;3.70;;;3.50;;
57339;SDS011;43174;50.930;18.170;2022-09-13T17:28:17;3.90;;;3.60;;
57339;SDS011;43174;50.930;18.170;2022-09-13T17:30:44;4.00;;;3.70;;
57339;SDS011;43174;50.930;18.170;2022-09-13T17:33:10;3.80;;;3.50;;
57339;SDS011;43174;50.930;18.170;2022-09-13T17:35:37;5.10;;;3.80;;
57339;SDS011;43174;50.930;18.170;2022-09-13T17:38:03;3.90;;;3.60;;
57339;SDS011;43174;50.930;18.170;2022-09-13T17:40:29;3.60;;;3.40;;
57339;SDS011;43174;50.930;18.170;2022-09-13T17:42:56;3.90;;;3.70;;
57339;SDS011;43174;50.930;18.170;2022-09-13T17:45:22;3.90;;;3.70;;
57339;SDS011;43174;50.930;18.170;2022-09-13T17:47:50;4.80;;;4.50;;
57339;SDS011;43174;50.930;18.170;2022-09-13T17:50:17;4.80;;;4.50;;
57339;SDS011;43174;50.930;18.170;2022-09-13T17:52:42;3.90;;;3.70;;
57339;SDS011;43174;50.930;18.170;2022-09-13T17:55:09;4.90;;;4.60;;
57339;SDS011;43174;50.930;18.170;2022-09-13T17:57:37;5.10;;;4.60;;
57339;SDS011;43174;50.930;18.170;2022-09-13T18:00:05;5.20;;;4.90;;
57339;SDS011;43174;50.930;18.170;2022-09-13T18:02:36;5.80;;;5.30;;
57339;SDS011;43174;50.930;18.170;2022-09-13T18:05:03;5.60;;;5.20;;
57339;SDS011;43174;50.930;18.170;2022-09-13T18:07:29;5.40;;;5.10;;
57339;SDS011;43174;50.930;18.170;2022-09-13T18:09:55;5.70;;;5.40;;
57339;SDS011;43174;50.930;18.170;2022-09-13T18:12:21;5.00;;;4.70;;
57339;SDS011;43174;50.930;18.170;2022-09-13T18:14:46;5.80;;;5.50;;
57339;SDS011;43174;50.930;18.170;2022-09-13T18:17:12;5.80;;;5.20;;
57339;SDS011;43174;50.930;18.170;2022-09-13T18:19:39;5.50;;;5.20;;
57339;SDS011;43174;50.930;18.170;2022-09-13T18:22:06;5.90;;;5.60;;
57339;SDS011;43174;50.930;18.170;2022-09-13T18:24:35;6.30;;;5.80;;
57339;SDS011;43174;50.930;18.170;2022-09-13T18:27:03;6.60;;;6.10;;
57339;SDS011;43174;50.930;18.170;2022-09-13T18:29:29;6.60;;;6.20;;
57339;SDS011;43174;50.930;18.170;2022-09-13T18:31:57;6.60;;;6.10;;
57339;SDS011;43174;50.930;18.170;2022-09-13T18:34:23;7.10;;;6.50;;
57339;SDS011;43174;50.930;18.170;2022-09-13T18:36:49;6.40;;;6.00;;
57339;SDS011;43174;50.930;18.170;2022-09-13T18:39:17;6.30;;;5.80;;
57339;SDS011;43174;50.930;18.170;2022-09-13T18:41:47;6.00;;;5.60;;
57339;SDS011;43174;50.930;18.170;2022-09-13T18:44:14;5.70;;;5.30;;
57339;SDS011;43174;50.930;18.170;2022-09-13T18:46:42;5.70;;;5.30;;
57339;SDS011;43174;50.930;18.170;2022-09-13T18:49:09;5.70;;;5.30;;
57339;SDS011;43174;50.930;18.170;2022-09-13T18:51:36;5.60;;;5.10;;
57339;SDS011;43174;50.930;18.170;2022-09-13T18:54:06;6.10;;;5.70;;
57339;SDS011;43174;50.930;18.170;2022-09-13T18:56:35;5.90;;;5.60;;